sensor_id;sensor_type;location;lat;lon;timestamp;pressure;altitude;pressure_sealevel;temperature;humidity
33953;BME280;20231;42.710;23.280;2023-02-19T00:01:13;95250.38;;;11.73;43.38
33953;BME280;20231;42.710;23.280;2023-02-19T00:03:40;95235.56;;;11.72;43.28
33953;BME280;20231;42.710;23.280;2023-02-19T00:06:08;95244.59;;;11.33;44.11
33953;BME280;20231;42.710;23.280;2023-02-19T00:08:36;95222.91;;;11.69;43.66
33953;BME280;20231;42.710;23.280;2023-02-19T00:11:03;95244.78;;;11.75;43.72
33953;BME280;20231;42.710;23.280;2023-02-19T00:13:30;95213.13;;;11.37;44.15
33953;BME280;20231;42.710;23.280;2023-02-19T00:15:55;95226.16;;;11.61;43.61
33953;BME280;20231;42.710;23.280;2023-02-19T00:18:22;95215.19;;;11.39;44.13
33953;BME280;20231;42.710;23.280;2023-02-19T00:20:48;95213.56;;;11.48;43.89
33953;BME280;20231;42.710;23.280;2023-02-19T00:23:13;95209.63;;;11.46;44.08
33953;BME280;20231;42.710;23.280;2023-02-19T00:25:39;95209.69;;;11.36;43.96
33953;BME280;20231;42.710;23.280;2023-02-19T00:28:04;95206.94;;;11.18;44.70
33953;BME280;20231;42.710;23.280;2023-02-19T00:30:30;95215.34;;;11.20;44.80
33953;BME280;20231;42.710;23.280;2023-02-19T00:32:55;95211.78;;;11.39;44.38
33953;BME280;20231;42.710;23.280;2023-02-19T00:35:21;95185.75;;;11.23;44.60
33953;BME280;20231;42.710;23.280;2023-02-19T00:37:46;95205.72;;;11.34;44.56
33953;BME280;20231;42.710;23.280;2023-02-19T00:40:11;95206.34;;;11.21;44.71
33953;BME280;20231;42.710;23.280;2023-02-19T00:42:37;95203.13;;;10.95;45.36
33953;BME280;20231;42.710;23.280;2023-02-19T00:45:02;95191.22;;;10.98;45.28
33953;BME280;20231;42.710;23.280;2023-02-19T00:47:28;95190.94;;;10.99;45.24
33953;BME280;20231;42.710;23.280;2023-02-19T00:49:53;95169.53;;;11.06;45.01
33953;BME280;20231;42.710;23.280;2023-02-19T00:52:19;95171.25;;;11.20;44.63
33953;BME280;20231;42.710;23.280;2023-02-19T00:54:44;95159.09;;;11.19;44.88
33953;BME280;20231;42.710;23.280;2023-02-19T00:57:10;95164.56;;;10.94;45.65
33953;BME280;20231;42.710;23.280;2023-02-19T00:59:35;95165.38;;;10.90;45.67
33953;BME280;20231;42.710;23.280;2023-02-19T01:02:01;95165.22;;;10.76;46.30
33953;BME280;20231;42.710;23.280;2023-02-19T01:04:27;95172.00;;;10.87;46.13
33953;BME280;20231;42.710;23.280;2023-02-19T01:06:52;95178.22;;;10.68;46.52
33953;BME280;20231;42.710;23.280;2023-02-19T01:09:18;95181.72;;;10.54;47.04
33953;BME280;20231;42.710;23.280;2023-02-19T01:11:43;95174.03;;;10.62;46.83
33953;BME280;20231;42.710;23.280;2023-02-19T01:14:09;95186.91;;;10.68;46.70
33953;BME280;20231;42.710;23.280;2023-02-19T01:16:34;95184.91;;;10.94;46.50
33953;BME280;20231;42.710;23.280;2023-02-19T01:19:00;95166.72;;;10.87;46.37
33953;BME280;20231;42.710;23.280;2023-02-19T01:21:27;95170.41;;;10.48;46.98
33953;BME280;20231;42.710;23.280;2023-02-19T01:23:53;95172.19;;;10.58;46.74
33953;BME280;20231;42.710;23.280;2023-02-19T01:26:24;95168.41;;;10.73;46.04
33953;BME280;20231;42.710;23.280;2023-02-19T01:28:50;95183.28;;;10.55;46.39
33953;BME280;20231;42.710;23.280;2023-02-19T01:31:21;95189.91;;;10.52;46.55
33953;BME280;20231;42.710;23.280;2023-02-19T01:33:53;95167.59;;;10.25;47.08
33953;BME280;20231;42.710;23.280;2023-02-19T01:36:19;95179.97;;;10.34;47.34
33953;BME280;20231;42.710;23.280;2023-02-19T01:38:45;95178.97;;;10.15;47.66
33953;BME280;20231;42.710;23.280;2023-02-19T01:41:16;95201.38;;;10.28;47.56
33953;BME280;20231;42.710;23.280;2023-02-19T01:46:19;95206.16;;;10.16;47.72
33953;BME280;20231;42.710;23.280;2023-02-19T01:48:45;95213.50;;;10.29;47.54
33953;BME280;20231;42.710;23.280;2023-02-19T01:51:14;95201.91;;;10.20;47.52
33953;BME280;20231;42.710;23.280;2023-02-19T01:53:42;95215.22;;;10.53;47.04
33953;BME280;20231;42.710;23.280;2023-02-19T01:56:10;95216.34;;;10.37;47.46
33953;BME280;20231;42.710;23.280;2023-02-19T01:58:38;95220.06;;;10.31;47.49
33953;BME280;20231;42.710;23.280;2023-02-19T02:01:06;95219.28;;;10.26;47.96
33953;BME280;20231;42.710;23.280;2023-02-19T02:03:33;95220.75;;;10.57;47.04
33953;BME280;20231;42.710;23.280;2023-02-19T02:06:08;95231.13;;;10.33;47.55
33953;BME280;20231;42.710;23.280;2023-02-19T02:08:36;95216.19;;;9.99;48.40
33953;BME280;20231;42.710;23.280;2023-02-19T02:11:21;95215.88;;;10.20;47.91
33953;BME280;20231;42.710;23.280;2023-02-19T02:13:47;95212.75;;;10.08;48.50
33953;BME280;20231;42.710;23.280;2023-02-19T02:16:24;95216.59;;;10.36;47.64
33953;BME280;20231;42.710;23.280;2023-02-19T02:32:12;95213.56;;;10.09;48.10
33953;BME280;20231;42.710;23.280;2023-02-19T02:34:58;95223.59;;;9.97;48.42
33953;BME280;20231;42.710;23.280;2023-02-19T02:37:27;95223.56;;;10.07;48.21
33953;BME280;20231;42.710;23.280;2023-02-19T02:39:56;95222.00;;;9.86;48.61
33953;BME280;20231;42.710;23.280;2023-02-19T02:42:22;95221.75;;;10.07;48.41
33953;BME280;20231;42.710;23.280;2023-02-19T02:44:55;95232.28;;;9.93;48.77
33953;BME280;20231;42.710;23.280;2023-02-19T02:47:47;95222.00;;;9.96;48.58
33953;BME280;20231;42.710;23.280;2023-02-19T02:50:25;95222.81;;;9.87;48.72
33953;BME280;20231;42.710;23.280;2023-02-19T02:53:01;95236.47;;;10.08;48.37
33953;BME280;20231;42.710;23.280;2023-02-19T02:55:48;95225.66;;;10.05;48.43
33953;BME280;20231;42.710;23.280;2023-02-19T02:58:16;95238.63;;;9.82;49.19
33953;BME280;20231;42.710;23.280;2023-02-19T03:00:44;95235.97;;;9.87;49.05
33953;BME280;20231;42.710;23.280;2023-02-19T03:03:31;95230.13;;;10.14;48.23
33953;BME280;20231;42.710;23.280;2023-02-19T03:06:01;95231.75;;;10.05;48.34
33953;BME280;20231;42.710;23.280;2023-02-19T03:08:36;95216.72;;;9.96;48.60
33953;BME280;20231;42.710;23.280;2023-02-19T03:11:06;95240.94;;;10.23;48.24
33953;BME280;20231;42.710;23.280;2023-02-19T03:14:00;95236.47;;;10.13;48.24
33953;BME280;20231;42.710;23.280;2023-02-19T03:16:47;95233.97;;;10.52;47.06
33953;BME280;20231;42.710;23.280;2023-02-19T03:19:37;95231.28;;;10.57;46.55
33953;BME280;20231;42.710;23.280;2023-02-19T03:22:30;95236.41;;;10.38;46.92
33953;BME280;20231;42.710;23.280;2023-02-19T03:25:03;95238.59;;;10.01;47.74
33953;BME280;20231;42.710;23.280;2023-02-19T03:27:48;95235.72;;;9.83;48.35
33953;BME280;20231;42.710;23.280;2023-02-19T03:30:28;95249.13;;;9.96;48.02
33953;BME280;20231;42.710;23.280;2023-02-19T03:32:59;95243.59;;;9.93;48.06
33953;BME280;20231;42.710;23.280;2023-02-19T03:35:31;95257.56;;;10.08;47.85
33953;BME280;20231;42.710;23.280;2023-02-19T03:38:19;95267.59;;;10.06;47.77
33953;BME280;20231;42.710;23.280;2023-02-19T03:41:01;95268.13;;;10.03;47.91
33953;BME280;20231;42.710;23.280;2023-02-19T03:43:43;95270.78;;;9.98;48.12
33953;BME280;20231;42.710;23.280;2023-02-19T03:46:33;95260.22;;;9.84;48.22
33953;BME280;20231;42.710;23.280;2023-02-19T03:49:07;95264.69;;;9.88;48.01
33953;BME280;20231;42.710;23.280;2023-02-19T03:51:44;95273.41;;;9.69;48.63
33953;BME280;20231;42.710;23.280;2023-02-19T03:54:33;95274.75;;;9.66;48.69
33953;BME280;20231;42.710;23.280;2023-02-19T03:57:20;95271.84;;;9.68;48.59
33953;BME280;20231;42.710;23.280;2023-02-19T04:05:25;95278.16;;;9.82;48.26
33953;BME280;20231;42.710;23.280;2023-02-19T04:07:54;95292.34;;;9.91;48.25
33953;BME280;20231;42.710;23.280;2023-02-19T04:10:22;95288.94;;;10.00;48.23
33953;BME280;20231;42.710;23.280;2023-02-19T04:12:55;95286.84;;;9.62;49.21
33953;BME280;20231;42.710;23.280;2023-02-19T04:15:25;95292.34;;;9.95;48.52
33953;BME280;20231;42.710;23.280;2023-02-19T04:17:58;95285.00;;;10.02;48.50
33953;BME280;20231;42.710;23.280;2023-02-19T04:20:27;95283.94;;;9.98;48.64
33953;BME280;20231;42.710;23.280;2023-02-19T04:22:53;95296.59;;;10.01;48.39
33953;BME280;20231;42.710;23.280;2023-02-19T04:25:20;95294.50;;;9.98;48.41
33953;BME280;20231;42.710;23.280;2023-02-19T04:27:46;95297.91;;;9.99;48.65
33953;BME280;20231;42.710;23.280;2023-02-19T04:30:13;95297.38;;;9.82;49.26
33953;BME280;20231;42.710;23.280;2023-02-19T04:32:38;95297.13;;;10.03;49.04
33953;BME280;20231;42.710;23.280;2023-02-19T04:35:04;95294.75;;;9.92;49.06
33953;BME280;20231;42.710;23.280;2023-02-19T04:37:29;95298.66;;;10.29;48.33
33953;BME280;20231;42.710;23.280;2023-02-19T04:39:55;95298.69;;;9.90;49.35
33953;BME280;20231;42.710;23.280;2023-02-19T04:42:20;95291.84;;;9.79;49.84
33953;BME280;20231;42.710;23.280;2023-02-19T04:44:45;95303.19;;;9.79;50.19
33953;BME280;20231;42.710;23.280;2023-02-19T04:47:11;95302.13;;;10.00;49.67
33953;BME280;20231;42.710;23.280;2023-02-19T04:49:36;95317.41;;;9.73;50.32
33953;BME280;20231;42.710;23.280;2023-02-19T04:52:02;95311.84;;;10.14;49.51
33953;BME280;20231;42.710;23.280;2023-02-19T04:54:27;95320.28;;;10.26;48.90
33953;BME280;20231;42.710;23.280;2023-02-19T04:56:52;95310.28;;;10.08;49.03
33953;BME280;20231;42.710;23.280;2023-02-19T04:59:18;95321.88;;;9.93;49.58
33953;BME280;20231;42.710;23.280;2023-02-19T05:01:43;95310.56;;;10.02;49.00
33953;BME280;20231;42.710;23.280;2023-02-19T05:04:09;95313.16;;;10.32;48.13
33953;BME280;20231;42.710;23.280;2023-02-19T05:06:34;95324.75;;;10.36;47.79
33953;BME280;20231;42.710;23.280;2023-02-19T05:08:59;95317.34;;;10.48;47.17
33953;BME280;20231;42.710;23.280;2023-02-19T05:11:25;95311.22;;;10.62;46.60
33953;BME280;20231;42.710;23.280;2023-02-19T05:13:50;95312.56;;;10.60;46.55
33953;BME280;20231;42.710;23.280;2023-02-19T05:16:16;95311.97;;;10.67;46.30
33953;BME280;20231;42.710;23.280;2023-02-19T05:18:43;95317.53;;;10.66;46.14
33953;BME280;20231;42.710;23.280;2023-02-19T05:21:09;95328.06;;;10.81;45.86
33953;BME280;20231;42.710;23.280;2023-02-19T05:23:35;95319.56;;;10.84;45.56
33953;BME280;20231;42.710;23.280;2023-02-19T05:26:10;95323.03;;;10.84;45.74
33953;BME280;20231;42.710;23.280;2023-02-19T05:28:36;95311.63;;;10.89;45.40
33953;BME280;20231;42.710;23.280;2023-02-19T05:31:06;95333.16;;;10.53;46.25
33953;BME280;20231;42.710;23.280;2023-02-19T05:33:33;95304.88;;;10.68;45.77
33953;BME280;20231;42.710;23.280;2023-02-19T05:36:07;95335.00;;;10.52;46.25
33953;BME280;20231;42.710;23.280;2023-02-19T05:38:33;95328.41;;;10.50;46.58
33953;BME280;20231;42.710;23.280;2023-02-19T05:41:19;95349.72;;;10.68;46.39
33953;BME280;20231;42.710;23.280;2023-02-19T05:43:46;95326.47;;;10.80;45.92
33953;BME280;20231;42.710;23.280;2023-02-19T05:46:15;95334.25;;;11.10;52.68
33953;BME280;20231;42.710;23.280;2023-02-19T05:48:40;95335.88;;;11.06;47.55
33953;BME280;20231;42.710;23.280;2023-02-19T05:51:10;95317.22;;;10.82;46.42
33953;BME280;20231;42.710;23.280;2023-02-19T05:53:36;95324.31;;;10.92;46.05
33953;BME280;20231;42.710;23.280;2023-02-19T05:56:02;95351.94;;;11.14;45.92
33953;BME280;20231;42.710;23.280;2023-02-19T05:58:28;95352.66;;;11.25;45.51
33953;BME280;20231;42.710;23.280;2023-02-19T06:00:54;95363.00;;;11.16;45.55
33953;BME280;20231;42.710;23.280;2023-02-19T06:03:20;95360.53;;;11.35;45.20
33953;BME280;20231;42.710;23.280;2023-02-19T06:05:45;95367.94;;;11.38;45.37
33953;BME280;20231;42.710;23.280;2023-02-19T06:08:14;95367.34;;;11.45;45.18
33953;BME280;20231;42.710;23.280;2023-02-19T06:10:40;95362.88;;;11.41;45.16
33953;BME280;20231;42.710;23.280;2023-02-19T06:13:08;95374.72;;;11.48;45.16
33953;BME280;20231;42.710;23.280;2023-02-19T06:15:33;95384.25;;;11.54;45.31
33953;BME280;20231;42.710;23.280;2023-02-19T06:17:59;95378.38;;;11.62;45.07
33953;BME280;20231;42.710;23.280;2023-02-19T06:20:25;95381.88;;;11.53;45.34
33953;BME280;20231;42.710;23.280;2023-02-19T06:22:50;95371.41;;;11.23;46.15
33953;BME280;20231;42.710;23.280;2023-02-19T06:25:16;95385.66;;;11.32;46.20
33953;BME280;20231;42.710;23.280;2023-02-19T06:27:42;95387.94;;;11.53;46.02
33953;BME280;20231;42.710;23.280;2023-02-19T06:30:08;95385.06;;;11.45;46.15
33953;BME280;20231;42.710;23.280;2023-02-19T06:32:34;95378.75;;;11.36;46.66
33953;BME280;20231;42.710;23.280;2023-02-19T06:34:59;95380.03;;;11.43;46.73
33953;BME280;20231;42.710;23.280;2023-02-19T06:37:24;95379.97;;;11.58;46.58
33953;BME280;20231;42.710;23.280;2023-02-19T06:39:50;95381.47;;;11.74;46.06
33953;BME280;20231;42.710;23.280;2023-02-19T06:42:15;95379.06;;;11.78;45.86
33953;BME280;20231;42.710;23.280;2023-02-19T06:44:41;95390.06;;;11.95;45.15
33953;BME280;20231;42.710;23.280;2023-02-19T06:47:06;95379.75;;;11.93;44.71
33953;BME280;20231;42.710;23.280;2023-02-19T06:49:31;95389.56;;;11.88;44.71
33953;BME280;20231;42.710;23.280;2023-02-19T06:51:57;95386.03;;;11.64;45.31
33953;BME280;20231;42.710;23.280;2023-02-19T06:54:23;95391.59;;;11.57;45.55
33953;BME280;20231;42.710;23.280;2023-02-19T06:56:50;95392.06;;;11.11;46.66
33953;BME280;20231;42.710;23.280;2023-02-19T06:59:16;95392.00;;;11.26;46.43
33953;BME280;20231;42.710;23.280;2023-02-19T07:01:42;95399.72;;;11.18;46.63
33953;BME280;20231;42.710;23.280;2023-02-19T07:04:08;95395.19;;;11.23;46.68
33953;BME280;20231;42.710;23.280;2023-02-19T07:06:34;95404.34;;;11.40;46.31
33953;BME280;20231;42.710;23.280;2023-02-19T07:09:00;95393.50;;;11.52;46.09
33953;BME280;20231;42.710;23.280;2023-02-19T07:11:29;95404.28;;;11.60;47.25
33953;BME280;20231;42.710;23.280;2023-02-19T07:13:55;95399.28;;;11.59;48.18
33953;BME280;20231;42.710;23.280;2023-02-19T07:16:21;95396.34;;;11.60;47.02
33953;BME280;20231;42.710;23.280;2023-02-19T07:18:46;95387.41;;;11.46;46.81
33953;BME280;20231;42.710;23.280;2023-02-19T07:21:13;95402.38;;;11.66;46.67
33953;BME280;20231;42.710;23.280;2023-02-19T07:23:39;95386.00;;;11.69;46.55
33953;BME280;20231;42.710;23.280;2023-02-19T07:26:14;95380.94;;;11.72;46.53
33953;BME280;20231;42.710;23.280;2023-02-19T07:28:40;95372.47;;;11.75;46.21
33953;BME280;20231;42.710;23.280;2023-02-19T07:31:06;95378.56;;;11.76;46.48
33953;BME280;20231;42.710;23.280;2023-02-19T07:33:31;95378.50;;;11.81;46.30
33953;BME280;20231;42.710;23.280;2023-02-19T07:35:57;95374.84;;;11.77;46.59
33953;BME280;20231;42.710;23.280;2023-02-19T07:38:23;95375.59;;;11.82;46.49
33953;BME280;20231;42.710;23.280;2023-02-19T07:40:57;95366.22;;;11.61;46.89
33953;BME280;20231;42.710;23.280;2023-02-19T07:43:24;95376.88;;;11.90;46.59
33953;BME280;20231;42.710;23.280;2023-02-19T07:45:50;95373.59;;;12.03;46.33
33953;BME280;20231;42.710;23.280;2023-02-19T07:48:15;95357.38;;;11.81;46.51
33953;BME280;20231;42.710;23.280;2023-02-19T07:50:41;95363.66;;;11.90;46.67
33953;BME280;20231;42.710;23.280;2023-02-19T07:53:07;95367.03;;;11.95;46.84
33953;BME280;20231;42.710;23.280;2023-02-19T07:55:33;95360.06;;;12.09;46.81
33953;BME280;20231;42.710;23.280;2023-02-19T07:57:59;95361.63;;;12.10;46.79
33953;BME280;20231;42.710;23.280;2023-02-19T08:00:25;95356.78;;;11.89;47.08
33953;BME280;20231;42.710;23.280;2023-02-19T08:02:51;95361.59;;;11.82;47.42
33953;BME280;20231;42.710;23.280;2023-02-19T08:05:35;95359.34;;;11.99;47.00
33953;BME280;20231;42.710;23.280;2023-02-19T08:08:04;95358.47;;;12.08;46.83
33953;BME280;20231;42.710;23.280;2023-02-19T08:10:30;95373.81;;;12.11;46.85
33953;BME280;20231;42.710;23.280;2023-02-19T08:13:15;95364.78;;;12.40;46.45
33953;BME280;20231;42.710;23.280;2023-02-19T08:15:44;95361.22;;;12.26;46.39
33953;BME280;20231;42.710;23.280;2023-02-19T08:18:11;95359.94;;;12.52;46.12
33953;BME280;20231;42.710;23.280;2023-02-19T08:20:37;95363.81;;;12.60;45.28
33953;BME280;20231;42.710;23.280;2023-02-19T08:23:02;95360.13;;;12.32;45.94
33953;BME280;20231;42.710;23.280;2023-02-19T08:25:28;95371.19;;;12.34;46.00
33953;BME280;20231;42.710;23.280;2023-02-19T08:27:53;95376.25;;;12.31;45.79
33953;BME280;20231;42.710;23.280;2023-02-19T08:30:19;95359.19;;;12.47;45.50
33953;BME280;20231;42.710;23.280;2023-02-19T08:32:44;95366.94;;;12.67;45.44
33953;BME280;20231;42.710;23.280;2023-02-19T08:35:09;95358.78;;;12.86;45.02
33953;BME280;20231;42.710;23.280;2023-02-19T08:37:35;95349.75;;;12.87;44.71
33953;BME280;20231;42.710;23.280;2023-02-19T08:40:00;95354.00;;;12.88;44.94
33953;BME280;20231;42.710;23.280;2023-02-19T08:42:27;95357.84;;;13.01;45.00
33953;BME280;20231;42.710;23.280;2023-02-19T08:44:52;95360.94;;;13.08;44.88
33953;BME280;20231;42.710;23.280;2023-02-19T08:47:18;95343.94;;;12.85;45.49
33953;BME280;20231;42.710;23.280;2023-02-19T08:49:43;95341.81;;;12.87;45.28
33953;BME280;20231;42.710;23.280;2023-02-19T08:52:09;95358.69;;;13.15;45.05
33953;BME280;20231;42.710;23.280;2023-02-19T08:54:34;95344.88;;;13.41;44.19
33953;BME280;20231;42.710;23.280;2023-02-19T08:56:59;95340.06;;;13.43;44.22
33953;BME280;20231;42.710;23.280;2023-02-19T08:59:27;95354.81;;;13.49;45.19
33953;BME280;20231;42.710;23.280;2023-02-19T09:01:53;95346.84;;;13.49;45.38
33953;BME280;20231;42.710;23.280;2023-02-19T09:04:18;95345.56;;;13.47;45.32
33953;BME280;20231;42.710;23.280;2023-02-19T09:06:43;95349.28;;;13.46;44.99
33953;BME280;20231;42.710;23.280;2023-02-19T09:09:09;95320.13;;;13.46;44.82
33953;BME280;20231;42.710;23.280;2023-02-19T09:11:37;95330.31;;;13.57;44.87
33953;BME280;20231;42.710;23.280;2023-02-19T09:14:03;95325.81;;;13.57;44.95
33953;BME280;20231;42.710;23.280;2023-02-19T09:16:32;95308.50;;;13.78;46.47
33953;BME280;20231;42.710;23.280;2023-02-19T09:18:57;95323.91;;;13.95;46.50
33953;BME280;20231;42.710;23.280;2023-02-19T09:21:22;95304.44;;;13.86;44.85
33953;BME280;20231;42.710;23.280;2023-02-19T09:23:48;95307.16;;;13.81;46.32
33953;BME280;20231;42.710;23.280;2023-02-19T09:26:14;95311.16;;;13.97;46.24
33953;BME280;20231;42.710;23.280;2023-02-19T09:28:40;95306.47;;;14.07;45.92
33953;BME280;20231;42.710;23.280;2023-02-19T09:31:11;95313.72;;;14.33;49.95
33953;BME280;20231;42.710;23.280;2023-02-19T09:33:40;95341.91;;;14.29;47.16
33953;BME280;20231;42.710;23.280;2023-02-19T09:36:05;95299.22;;;14.13;47.30
33953;BME280;20231;42.710;23.280;2023-02-19T09:38:31;95300.63;;;13.92;45.13
33953;BME280;20231;42.710;23.280;2023-02-19T09:40:57;95306.69;;;14.11;45.83
33953;BME280;20231;42.710;23.280;2023-02-19T09:43:25;95308.03;;;13.76;45.33
33953;BME280;20231;42.710;23.280;2023-02-19T09:46:05;95301.22;;;14.02;47.32
33953;BME280;20231;42.710;23.280;2023-02-19T09:48:34;95287.53;;;14.14;46.42
33953;BME280;20231;42.710;23.280;2023-02-19T09:51:00;95283.16;;;14.04;45.73
33953;BME280;20231;42.710;23.280;2023-02-19T09:53:28;95297.78;;;14.02;46.72
33953;BME280;20231;42.710;23.280;2023-02-19T09:56:00;95285.59;;;14.01;46.73
33953;BME280;20231;42.710;23.280;2023-02-19T09:58:42;95292.88;;;14.27;48.80
33953;BME280;20231;42.710;23.280;2023-02-19T10:01:11;95279.78;;;14.17;44.73
33953;BME280;20231;42.710;23.280;2023-02-19T10:03:39;95258.34;;;14.27;45.93
33953;BME280;20231;42.710;23.280;2023-02-19T10:06:17;95266.72;;;14.21;45.07
33953;BME280;20231;42.710;23.280;2023-02-19T10:08:49;95273.41;;;14.45;45.39
33953;BME280;20231;42.710;23.280;2023-02-19T10:11:16;95244.13;;;14.36;43.91
33953;BME280;20231;42.710;23.280;2023-02-19T10:13:53;95258.09;;;14.55;44.94
33953;BME280;20231;42.710;23.280;2023-02-19T10:16:26;95236.66;;;14.38;42.69
33953;BME280;20231;42.710;23.280;2023-02-19T10:18:52;95227.91;;;14.38;42.32
33953;BME280;20231;42.710;23.280;2023-02-19T10:21:23;95225.22;;;14.11;42.27
33953;BME280;20231;42.710;23.280;2023-02-19T10:23:54;95226.25;;;14.28;42.67
33953;BME280;20231;42.710;23.280;2023-02-19T10:26:22;95210.31;;;14.28;42.00
33953;BME280;20231;42.710;23.280;2023-02-19T10:28:48;95199.28;;;14.35;41.81
33953;BME280;20231;42.710;23.280;2023-02-19T10:31:19;95206.97;;;14.50;41.59
33953;BME280;20231;42.710;23.280;2023-02-19T10:33:56;95200.06;;;14.62;41.79
33953;BME280;20231;42.710;23.280;2023-02-19T10:36:30;95205.28;;;14.54;41.04
33953;BME280;20231;42.710;23.280;2023-02-19T10:38:58;95193.97;;;14.35;41.44
33953;BME280;20231;42.710;23.280;2023-02-19T10:41:26;95198.50;;;14.48;41.92
33953;BME280;20231;42.710;23.280;2023-02-19T10:43:55;95184.81;;;14.54;43.88
33953;BME280;20231;42.710;23.280;2023-02-19T10:46:34;95172.63;;;14.67;41.39
33953;BME280;20231;42.710;23.280;2023-02-19T10:49:04;95151.94;;;14.77;40.50
33953;BME280;20231;42.710;23.280;2023-02-19T10:51:33;95173.66;;;14.93;40.29
33953;BME280;20231;42.710;23.280;2023-02-19T10:56:42;95157.72;;;15.14;39.88
33953;BME280;20231;42.710;23.280;2023-02-19T11:02:13;95151.47;;;15.32;39.55
33953;BME280;20231;42.710;23.280;2023-02-19T11:04:40;95142.16;;;15.21;39.25
33953;BME280;20231;42.710;23.280;2023-02-19T11:07:09;95135.78;;;15.22;39.57
33953;BME280;20231;42.710;23.280;2023-02-19T11:09:39;95122.03;;;15.51;39.54
33953;BME280;20231;42.710;23.280;2023-02-19T11:12:07;95124.75;;;15.59;43.18
33953;BME280;20231;42.710;23.280;2023-02-19T11:14:34;95117.94;;;16.05;49.60
33953;BME280;20231;42.710;23.280;2023-02-19T11:17:01;95115.63;;;16.12;48.17
33953;BME280;20231;42.710;23.280;2023-02-19T11:19:39;95118.41;;;16.07;39.46
33953;BME280;20231;42.710;23.280;2023-02-19T11:22:27;95121.19;;;16.41;48.08
33953;BME280;20231;42.710;23.280;2023-02-19T11:24:54;95092.97;;;16.32;39.13
33953;BME280;20231;42.710;23.280;2023-02-19T11:27:22;95082.44;;;16.18;38.60
33953;BME280;20231;42.710;23.280;2023-02-19T11:29:48;95090.38;;;16.01;38.57
33953;BME280;20231;42.710;23.280;2023-02-19T11:34:45;95062.03;;;16.05;41.16
33953;BME280;20231;42.710;23.280;2023-02-19T11:37:15;95070.22;;;16.17;41.49
33953;BME280;20231;42.710;23.280;2023-02-19T11:39:43;95081.09;;;16.38;40.73
33953;BME280;20231;42.710;23.280;2023-02-19T11:53:24;95048.84;;;16.81;38.18
33953;BME280;20231;42.710;23.280;2023-02-19T11:59:19;95067.19;;;17.08;36.04
33953;BME280;20231;42.710;23.280;2023-02-19T12:15:28;95009.06;;;17.47;36.91
33953;BME280;20231;42.710;23.280;2023-02-19T12:20:37;95014.25;;;17.89;34.68
33953;BME280;20231;42.710;23.280;2023-02-19T12:39:23;94962.69;;;18.47;34.71
33953;BME280;20231;42.710;23.280;2023-02-19T12:44:31;94972.84;;;18.73;35.65
33953;BME280;20231;42.710;23.280;2023-02-19T12:47:02;94946.06;;;18.94;35.88
33953;BME280;20231;42.710;23.280;2023-02-19T12:49:34;94939.63;;;19.07;35.45
33953;BME280;20231;42.710;23.280;2023-02-19T12:52:06;94939.47;;;19.12;36.36
33953;BME280;20231;42.710;23.280;2023-02-19T12:54:41;94943.09;;;19.07;33.11
33953;BME280;20231;42.710;23.280;2023-02-19T12:57:20;94934.44;;;19.10;35.01
33953;BME280;20231;42.710;23.280;2023-02-19T13:02:27;94917.78;;;19.05;33.92
33953;BME280;20231;42.710;23.280;2023-02-19T13:05:18;94906.25;;;19.13;36.42
33953;BME280;20231;42.710;23.280;2023-02-19T13:08:04;94916.75;;;18.85;31.40
33953;BME280;20231;42.710;23.280;2023-02-19T13:10:39;94916.13;;;19.00;33.56
33953;BME280;20231;42.710;23.280;2023-02-19T13:13:14;94909.63;;;18.89;33.61
33953;BME280;20231;42.710;23.280;2023-02-19T13:15:46;94898.94;;;19.01;33.88
33953;BME280;20231;42.710;23.280;2023-02-19T13:18:20;94896.59;;;19.00;34.14
33953;BME280;20231;42.710;23.280;2023-02-19T13:20:47;94887.97;;;19.15;33.84
33953;BME280;20231;42.710;23.280;2023-02-19T13:23:26;94890.88;;;19.22;32.40
33953;BME280;20231;42.710;23.280;2023-02-19T13:37:14;94855.97;;;19.66;32.05
33953;BME280;20231;42.710;23.280;2023-02-19T13:39:47;94861.75;;;19.92;31.09
33953;BME280;20231;42.710;23.280;2023-02-19T13:42:25;94852.50;;;20.01;30.93
33953;BME280;20231;42.710;23.280;2023-02-19T13:44:52;94850.44;;;20.10;31.63
33953;BME280;20231;42.710;23.280;2023-02-19T13:52:56;94847.63;;;20.18;30.31
33953;BME280;20231;42.710;23.280;2023-02-19T14:01:05;94843.63;;;20.12;29.26
33953;BME280;20231;42.710;23.280;2023-02-19T14:03:52;94840.88;;;19.85;29.67
33953;BME280;20231;42.710;23.280;2023-02-19T14:06:18;94833.88;;;19.81;29.62
33953;BME280;20231;42.710;23.280;2023-02-19T14:11:12;94843.06;;;19.56;30.21
33953;BME280;20231;42.710;23.280;2023-02-19T14:19:02;94822.66;;;19.28;30.41
33953;BME280;20231;42.710;23.280;2023-02-19T14:21:37;94828.00;;;19.39;30.56
33953;BME280;20231;42.710;23.280;2023-02-19T14:24:04;94824.22;;;19.40;30.35
33953;BME280;20231;42.710;23.280;2023-02-19T14:26:31;94812.19;;;19.46;30.58
33953;BME280;20231;42.710;23.280;2023-02-19T14:28:59;94804.25;;;19.62;30.43
33953;BME280;20231;42.710;23.280;2023-02-19T14:31:37;94814.22;;;19.77;29.86
33953;BME280;20231;42.710;23.280;2023-02-19T14:34:06;94813.13;;;19.78;30.20
33953;BME280;20231;42.710;23.280;2023-02-19T14:36:42;94813.22;;;19.81;29.83
33953;BME280;20231;42.710;23.280;2023-02-19T14:39:22;94811.53;;;19.89;29.29
33953;BME280;20231;42.710;23.280;2023-02-19T14:41:51;94807.00;;;19.77;29.89
33953;BME280;20231;42.710;23.280;2023-02-19T14:44:23;94804.19;;;19.86;29.42
33953;BME280;20231;42.710;23.280;2023-02-19T14:49:28;94796.50;;;19.84;30.37
33953;BME280;20231;42.710;23.280;2023-02-19T14:51:59;94791.91;;;19.85;30.76
33953;BME280;20231;42.710;23.280;2023-02-19T14:57:35;94786.88;;;19.95;31.15
33953;BME280;20231;42.710;23.280;2023-02-19T15:00:27;94788.63;;;19.91;31.48